Time;durP1;ratioP1;P1;durP2;ratioP2;P2;SDS_P1;SDS_P2;PMS_P1;PMS_P2;Temp;Humidity;BMP_temperature;BMP_pressure;BME280_temperature;BME280_humidity;BME280_pressure;Samples;Min_cycle;Max_cycle;Signal;HPM_P1;HPM_P2
2022/08/13 00:01:15;;;;;;;16.80;11.20;;;22.30;99.90;;;;;;5010545;28;20211;-72
2022/08/13 00:03:43;;;;;;;13.03;9.53;;;22.30;99.90;;;;;;5010455;28;20215;-73
2022/08/13 00:06:10;;;;;;;13.07;10.20;;;22.30;99.90;;;;;;5010606;28;20294;-72
2022/08/13 00:08:38;;;;;;;12.97;9.70;;;22.30;99.90;;;;;;5010366;28;20766;-72
2022/08/13 00:11:06;;;;;;;13.53;9.70;;;22.30;99.90;;;;;;5011066;28;20705;-72
2022/08/13 00:13:34;;;;;;;11.77;9.47;;;22.20;99.90;;;;;;4990891;28;20306;-73
2022/08/13 00:16:01;;;;;;;12.40;9.80;;;22.20;99.90;;;;;;4990794;28;20294;-72
2022/08/13 00:18:30;;;;;;;11.77;9.17;;;22.20;99.90;;;;;;4990634;28;20735;-73
2022/08/13 00:20:58;;;;;;;14.03;9.47;;;22.20;99.90;;;;;;5019942;28;20202;-73
2022/08/13 00:23:29;;;;;;;12.67;8.87;;;22.20;99.90;;;;;;5029764;28;20692;-72
2022/08/13 00:25:58;;;;;;;11.70;9.03;;;22.10;99.90;;;;;;5030062;28;20199;-72
2022/08/13 00:28:28;;;;;;;13.27;8.40;;;22.10;99.90;;;;;;5026567;28;20269;-72
2022/08/13 00:30:59;;;;;;;13.90;8.33;;;22.10;99.90;;;;;;5026097;28;20206;-74
2022/08/13 00:33:26;;;;;;;11.87;8.13;;;22.10;99.90;;;;;;5030043;28;20605;-74
2022/08/13 00:35:54;;;;;;;11.07;8.10;;;22.10;99.90;;;;;;5030205;28;20233;-72
2022/08/13 00:38:23;;;;;;;13.97;8.57;;;22.10;99.90;;;;;;5030523;28;20199;-71
2022/08/13 00:40:52;;;;;;;10.90;7.47;;;22.00;99.90;;;;;;5030217;28;20305;-72
2022/08/13 00:43:19;;;;;;;10.90;7.80;;;22.00;99.90;;;;;;5030518;28;20290;-72
2022/08/13 00:45:46;;;;;;;11.50;7.23;;;22.00;99.90;;;;;;5024222;28;20226;-73
2022/08/13 00:50:59;;;;;;;11.23;8.20;;;22.00;99.90;;;;;;5011149;28;20242;-72
2022/08/13 00:53:30;;;;;;;10.63;7.60;;;22.00;99.90;;;;;;5010536;28;20211;-73
2022/08/13 00:55:59;;;;;;;10.07;7.87;;;22.00;99.90;;;;;;5010275;28;20234;-72
2022/08/13 00:58:28;;;;;;;11.90;7.80;;;22.00;99.90;;;;;;5009699;28;20245;-71
2022/08/13 01:00:57;;;;;;;10.40;7.70;;;21.90;99.90;;;;;;5010105;28;20301;-72
2022/08/13 01:03:28;;;;;;;11.33;7.50;;;21.90;99.90;;;;;;5021100;28;20704;-72
2022/08/13 01:05:59;;;;;;;11.60;8.33;;;21.90;99.90;;;;;;5030338;28;20584;-72
2022/08/13 01:08:30;;;;;;;10.97;7.07;;;21.90;99.90;;;;;;5029514;28;20200;-72
2022/08/13 01:11:00;;;;;;;11.07;7.57;;;21.90;99.90;;;;;;5029796;28;20207;-72
2022/08/13 01:13:28;;;;;;;11.93;7.53;;;21.90;99.90;;;;;;5029803;28;20209;-72
2022/08/13 01:15:56;;;;;;;9.30;7.07;;;21.90;99.90;;;;;;5030049;28;20368;-72
2022/08/13 01:18:25;;;;;;;12.83;7.23;;;21.90;99.90;;;;;;5029788;28;20317;-73
2022/08/13 01:21:01;;;;;;;9.17;7.07;;;21.90;99.90;;;;;;5028636;28;20221;-72
2022/08/13 01:23:30;;;;;;;8.83;7.23;;;21.90;99.90;;;;;;5029717;28;20186;-72
2022/08/13 01:25:59;;;;;;;11.00;7.77;;;21.90;99.90;;;;;;5029871;28;20774;-72
2022/08/13 01:28:28;;;;;;;9.80;6.60;;;21.90;99.90;;;;;;5032004;28;20213;-72
2022/08/13 01:30:58;;;;;;;10.17;7.00;;;21.80;99.90;;;;;;5033166;28;20229;-73
2022/08/13 01:33:26;;;;;;;9.67;7.30;;;21.80;99.90;;;;;;5032793;28;20194;-74
2022/08/13 01:35:54;;;;;;;11.10;7.17;;;21.80;99.90;;;;;;5033122;28;20213;-72
2022/08/13 01:38:22;;;;;;;11.17;7.00;;;21.80;99.90;;;;;;5013923;28;20257;-73
2022/08/13 01:40:50;;;;;;;12.30;6.67;;;21.80;99.90;;;;;;5013219;28;20211;-73
2022/08/13 01:43:18;;;;;;;10.80;6.93;;;21.80;99.90;;;;;;5020825;28;20217;-72
2022/08/13 01:45:46;;;;;;;11.03;7.57;;;21.80;99.90;;;;;;5032894;28;20201;-71
2022/08/13 01:50:57;;;;;;;11.73;7.00;;;21.80;99.90;;;;;;5013083;28;20339;-72
2022/08/13 01:53:24;;;;;;;10.40;6.87;;;21.80;99.90;;;;;;5012549;28;20294;-72
2022/08/13 01:55:55;;;;;;;11.60;6.97;;;21.70;99.90;;;;;;5012370;28;20570;-73
2022/08/13 01:58:25;;;;;;;13.17;6.63;;;21.80;99.90;;;;;;5010979;28;20330;-72
2022/08/13 02:00:55;;;;;;;10.97;6.80;;;21.80;99.90;;;;;;5011107;28;20358;-72
2022/08/13 02:03:23;;;;;;;10.40;6.67;;;21.70;99.90;;;;;;5012249;28;20766;-72
2022/08/13 02:05:51;;;;;;;11.23;6.77;;;21.70;99.90;;;;;;5011593;28;20215;-72
2022/08/13 02:08:22;;;;;;;13.40;7.70;;;21.70;99.90;;;;;;5012283;28;20277;-72
2022/08/13 02:10:52;;;;;;;10.50;7.17;;;21.70;99.90;;;;;;5013432;28;20215;-73
2022/08/13 02:13:26;;;;;;;8.70;6.40;;;21.70;99.90;;;;;;5012750;28;20195;-72
2022/08/13 02:15:53;;;;;;;8.43;6.10;;;21.70;99.90;;;;;;5012987;28;20191;-72
2022/08/13 02:18:22;;;;;;;10.57;6.93;;;21.70;99.90;;;;;;5011835;28;20629;-73
2022/08/13 02:20:50;;;;;;;11.87;6.77;;;21.70;99.90;;;;;;5012769;28;20226;-72
2022/08/13 02:23:20;;;;;;;10.03;6.97;;;21.70;99.90;;;;;;5012029;28;20254;-72
2022/08/13 02:25:49;;;;;;;11.60;7.13;;;21.70;99.90;;;;;;5012211;28;20704;-72
2022/08/13 02:28:19;;;;;;;10.57;6.43;;;21.70;99.90;;;;;;5011544;28;20218;-72
2022/08/13 02:30:48;;;;;;;11.20;6.83;;;21.60;99.90;;;;;;5011935;28;20250;-72
2022/08/13 02:33:16;;;;;;;12.53;7.07;;;21.60;99.90;;;;;;5012002;28;20209;-72
2022/08/13 02:35:45;;;;;;;9.07;6.43;;;21.60;99.90;;;;;;5012083;28;20304;-72
2022/08/13 02:38:12;;;;;;;9.93;6.80;;;21.50;99.90;;;;;;5011798;28;20209;-72
2022/08/13 02:43:24;;;;;;;10.30;6.90;;;21.50;99.90;;;;;;5011223;28;20225;-73
2022/08/13 02:45:54;;;;;;;10.23;6.70;;;21.50;99.90;;;;;;5012443;28;20261;-72
2022/08/13 02:48:22;;;;;;;8.80;6.87;;;21.50;99.90;;;;;;5011781;28;20206;-72
2022/08/13 02:50:49;;;;;;;11.13;6.57;;;21.40;99.90;;;;;;5009820;28;20208;-73
2022/08/13 02:53:18;;;;;;;11.17;7.00;;;21.40;99.90;;;;;;5011991;28;20200;-73
2022/08/13 02:55:47;;;;;;;9.63;6.80;;;21.40;99.90;;;;;;5012188;28;20206;-73
2022/08/13 02:58:14;;;;;;;15.00;7.00;;;21.40;99.90;;;;;;5011155;28;20245;-74
2022/08/13 03:00:47;;;;;;;11.67;7.13;;;21.40;99.90;;;;;;5011966;28;20269;-73
2022/08/13 03:03:17;;;;;;;11.87;6.80;;;21.40;99.90;;;;;;5011498;28;20270;-72
2022/08/13 03:05:43;;;;;;;10.43;6.90;;;21.40;99.90;;;;;;5012232;28;20289;-74
2022/08/13 03:08:11;;;;;;;12.23;6.97;;;21.40;99.90;;;;;;5011686;28;20220;-72
2022/08/13 03:10:40;;;;;;;12.70;7.63;;;21.40;99.90;;;;;;5012169;28;20306;-73
2022/08/13 03:13:16;;;;;;;14.83;7.47;;;21.30;99.90;;;;;;5010323;28;20205;-73
2022/08/13 03:15:45;;;;;;;10.23;6.73;;;21.30;99.90;;;;;;5010736;28;20319;-73
2022/08/13 03:18:12;;;;;;;11.40;7.30;;;21.30;99.90;;;;;;5011095;28;20203;-73
2022/08/13 03:20:42;;;;;;;11.23;6.83;;;21.20;99.90;;;;;;5011553;28;20208;-73
2022/08/13 03:23:11;;;;;;;9.77;7.13;;;21.30;99.90;;;;;;5010034;28;20714;-73
2022/08/13 03:25:38;;;;;;;11.00;7.07;;;21.20;99.90;;;;;;5011246;28;20229;-72
2022/08/13 03:28:07;;;;;;;9.67;6.63;;;21.20;99.90;;;;;;5011336;28;20732;-72
2022/08/13 03:30:34;;;;;;;11.47;7.20;;;21.30;99.90;;;;;;5010635;28;20203;-73
2022/08/13 03:33:06;;;;;;;10.60;7.17;;;21.20;99.90;;;;;;5011161;28;20823;-73
2022/08/13 03:35:34;;;;;;;11.10;7.03;;;21.30;99.90;;;;;;5011513;28;20898;-73
2022/08/13 03:38:03;;;;;;;11.17;7.37;;;21.30;99.90;;;;;;5011033;28;20238;-73
2022/08/13 03:41:00;;;;;;;9.80;6.80;;;21.30;99.90;;;;;;5011566;28;20661;-72
2022/08/13 03:43:18;;;;;;;13.23;7.20;;;21.30;99.90;;;;;;5010538;28;20586;-73
2022/08/13 03:45:45;;;;;;;12.57;7.10;;;21.30;99.90;;;;;;5010140;28;20257;-72
2022/08/13 03:48:12;;;;;;;15.00;7.60;;;21.20;99.90;;;;;;5010613;28;20218;-73
2022/08/13 03:50:40;;;;;;;15.17;6.90;;;21.20;99.90;;;;;;5011439;28;20210;-72
2022/08/13 03:53:10;;;;;;;12.17;6.83;;;21.20;99.90;;;;;;5008663;28;20210;-72
2022/08/13 03:55:39;;;;;;;17.70;7.73;;;21.10;99.90;;;;;;5011025;28;20218;-73
2022/08/13 03:58:07;;;;;;;13.93;7.20;;;21.10;99.90;;;;;;5010322;28;20217;-72
2022/08/13 04:00:36;;;;;;;15.83;7.53;;;20.90;99.90;;;;;;5010296;28;20820;-72
2022/08/13 04:03:14;;;;;;;10.83;7.33;;;20.70;99.90;;;;;;5010668;28;20321;-73
2022/08/13 04:05:41;;;;;;;15.93;8.17;;;20.60;99.90;;;;;;5010717;28;20645;-73
2022/08/13 04:08:10;;;;;;;12.80;7.27;;;20.50;99.90;;;;;;5001777;28;20721;-73
2022/08/13 04:10:37;;;;;;;14.70;8.07;;;20.50;99.90;;;;;;4990558;28;20214;-73
2022/08/13 04:13:04;;;;;;;15.20;8.30;;;20.40;99.90;;;;;;4990487;28;20210;-72
2022/08/13 04:15:31;;;;;;;15.17;7.53;;;20.40;99.90;;;;;;5002594;28;20218;-72
2022/08/13 04:17:58;;;;;;;10.50;7.00;;;20.40;99.90;;;;;;5009950;28;20294;-73
2022/08/13 04:20:26;;;;;;;13.03;7.70;;;20.30;99.90;;;;;;5010574;28;20755;-72
2022/08/13 04:22:53;;;;;;;12.67;7.10;;;20.30;99.90;;;;;;5008977;28;20226;-73
2022/08/13 04:25:23;;;;;;;10.80;7.40;;;20.20;99.90;;;;;;5004775;28;20219;-72
2022/08/13 04:27:50;;;;;;;14.40;7.73;;;20.20;99.90;;;;;;5003118;28;20653;-73
2022/08/13 04:30:20;;;;;;;13.83;7.90;;;20.10;99.90;;;;;;5000446;28;20630;-73
2022/08/13 04:32:48;;;;;;;18.87;7.63;;;20.10;99.90;;;;;;5008868;28;20191;-72
2022/08/13 04:35:15;;;;;;;13.50;7.40;;;20.10;99.90;;;;;;5010390;28;20204;-72
2022/08/13 04:37:42;;;;;;;13.03;8.17;;;20.10;99.90;;;;;;5001177;28;20717;-73
2022/08/13 04:40:12;;;;;;;13.67;7.67;;;20.10;99.90;;;;;;5010479;28;20334;-73
2022/08/13 04:42:53;;;;;;;11.27;7.53;;;20.10;99.90;;;;;;5011194;28;20650;-72
2022/08/13 04:45:20;;;;;;;11.73;7.87;;;20.10;99.90;;;;;;5010462;28;20199;-73
2022/08/13 04:47:47;;;;;;;18.50;8.03;;;20.10;99.90;;;;;;5010453;28;20298;-73
2022/08/13 04:50:15;;;;;;;14.10;8.03;;;20.10;99.90;;;;;;5010672;28;20330;-73
2022/08/13 04:52:42;;;;;;;15.87;7.57;;;20.10;99.90;;;;;;4998542;28;20206;-73
2022/08/13 04:55:11;;;;;;;12.93;8.20;;;20.00;99.90;;;;;;5001654;28;20307;-73
2022/08/13 04:57:38;;;;;;;16.10;9.23;;;20.00;99.90;;;;;;4998373;28;20597;-72
2022/08/13 05:00:09;;;;;;;15.37;8.33;;;19.90;99.90;;;;;;4998613;28;20301;-73
2022/08/13 05:02:38;;;;;;;14.43;8.17;;;19.70;99.90;;;;;;5010790;28;20212;-73
2022/08/13 05:05:06;;;;;;;19.73;8.70;;;19.60;99.90;;;;;;5012994;28;20207;-72
2022/08/13 05:07:34;;;;;;;16.27;9.37;;;19.50;99.90;;;;;;5012661;28;20207;-73
2022/08/13 05:10:01;;;;;;;20.07;8.27;;;19.40;99.90;;;;;;5012362;28;20202;-73
2022/08/13 05:12:28;;;;;;;15.20;8.00;;;19.30;99.90;;;;;;5015549;28;20261;-73
2022/08/13 05:14:55;;;;;;;16.53;8.77;;;19.30;99.90;;;;;;5015110;28;20214;-72
2022/08/13 05:17:23;;;;;;;14.77;8.47;;;19.30;99.90;;;;;;5015871;28;20211;-73
2022/08/13 05:19:50;;;;;;;17.73;8.93;;;19.20;99.90;;;;;;5012879;28;20302;-72
2022/08/13 05:22:17;;;;;;;14.17;8.47;;;19.20;99.90;;;;;;5015611;28;20272;-71
2022/08/13 05:24:44;;;;;;;16.37;8.63;;;19.20;99.90;;;;;;5015748;28;20736;-72
2022/08/13 05:27:13;;;;;;;19.10;9.10;;;19.30;99.90;;;;;;5015345;28;20278;-73
2022/08/13 05:29:41;;;;;;;15.47;8.10;;;19.30;99.90;;;;;;5014742;28;20221;-73
2022/08/13 05:32:10;;;;;;;16.40;9.00;;;19.30;99.90;;;;;;5015480;28;20302;-72
2022/08/13 05:34:39;;;;;;;13.03;9.23;;;19.30;99.90;;;;;;5015255;28;20230;-73
2022/08/13 05:37:07;;;;;;;12.10;8.40;;;19.40;99.90;;;;;;5014488;28;20243;-73
2022/08/13 05:39:34;;;;;;;15.27;9.10;;;19.40;99.90;;;;;;5014966;28;20219;-73
2022/08/13 05:42:01;;;;;;;16.10;8.40;;;19.50;99.90;;;;;;5015225;28;20735;-73
2022/08/13 05:44:28;;;;;;;16.80;10.97;;;19.60;99.90;;;;;;5014974;28;20269;-73
2022/08/13 05:46:55;;;;;;;15.50;9.27;;;19.70;99.90;;;;;;5015063;28;20284;-73
2022/08/13 05:49:23;;;;;;;15.10;8.63;;;19.80;99.90;;;;;;5011598;28;20578;-74
2022/08/13 05:51:52;;;;;;;14.27;9.03;;;19.80;99.90;;;;;;5014336;28;20220;-74
2022/08/13 05:54:19;;;;;;;15.33;9.20;;;19.80;99.90;;;;;;5015177;28;20200;-75
2022/08/13 05:56:46;;;;;;;16.10;9.07;;;19.90;99.90;;;;;;5014735;28;20209;-74
2022/08/13 06:04:40;;;;;;;14.73;9.80;;;20.10;99.90;;;;;;5014054;28;20276;-74
2022/08/13 06:07:11;;;;;;;15.77;8.70;;;20.20;99.90;;;;;;5014569;28;20216;-73
2022/08/13 06:09:38;;;;;;;17.37;9.87;;;20.30;99.90;;;;;;5012323;28;20252;-74
2022/08/13 06:12:07;;;;;;;15.53;9.10;;;20.40;99.90;;;;;;5014652;28;20274;-73
2022/08/13 06:14:35;;;;;;;17.07;10.10;;;20.50;99.90;;;;;;5014881;28;20205;-73
2022/08/13 06:17:03;;;;;;;15.30;8.63;;;20.50;99.90;;;;;;5014599;28;20245;-74
2022/08/13 06:19:32;;;;;;;15.00;9.33;;;20.60;99.90;;;;;;5013979;28;20260;-73
2022/08/13 06:22:02;;;;;;;16.37;9.50;;;20.70;99.90;;;;;;5014680;28;20631;-74
2022/08/13 06:24:32;;;;;;;16.10;9.70;;;20.70;99.90;;;;;;5014069;28;20246;-74
2022/08/13 06:27:04;;;;;;;12.53;8.80;;;20.80;99.90;;;;;;5014163;28;20207;-73
2022/08/13 06:29:35;;;;;;;14.83;9.13;;;20.90;99.90;;;;;;5014122;28;20287;-73
2022/08/13 06:32:03;;;;;;;13.33;9.27;;;20.90;99.90;;;;;;5014207;28;20198;-72
2022/08/13 06:34:35;;;;;;;18.43;10.67;;;20.90;99.90;;;;;;5014567;28;20297;-73
2022/08/13 06:37:02;;;;;;;17.27;10.60;;;21.00;99.90;;;;;;5013830;28;20248;-74
2022/08/13 06:39:31;;;;;;;24.47;14.70;;;21.10;99.90;;;;;;5012873;28;20257;-73
2022/08/13 06:42:02;;;;;;;15.57;10.80;;;21.10;99.90;;;;;;5013843;28;20206;-75
2022/08/13 06:44:31;;;;;;;12.57;8.93;;;21.20;99.90;;;;;;5013112;28;20257;-74
2022/08/13 06:47:03;;;;;;;21.63;10.70;;;21.30;99.90;;;;;;4997803;28;20217;-73
2022/08/13 06:49:30;;;;;;;15.50;9.70;;;21.30;99.90;;;;;;5011588;28;20207;-75
2022/08/13 06:51:57;;;;;;;15.00;10.33;;;21.40;99.90;;;;;;5011799;28;20207;-75
2022/08/13 06:54:25;;;;;;;16.80;10.53;;;21.50;99.90;;;;;;5013744;28;20316;-75
2022/08/13 06:56:54;;;;;;;18.83;10.43;;;21.50;99.90;;;;;;5013222;28;20211;-73
2022/08/13 06:59:24;;;;;;;13.87;10.07;;;21.60;99.90;;;;;;5010707;28;20199;-74
2022/08/13 07:02:00;;;;;;;16.70;9.77;;;21.60;99.90;;;;;;5013299;28;20298;-74
2022/08/13 07:04:28;;;;;;;16.03;9.90;;;21.70;99.90;;;;;;5013763;28;20317;-73
2022/08/13 07:06:57;;;;;;;16.77;10.40;;;21.80;99.90;;;;;;5013846;28;20640;-74
2022/08/13 07:09:24;;;;;;;15.97;10.53;;;21.90;99.90;;;;;;5013504;28;20290;-73
2022/08/13 07:11:53;;;;;;;13.57;10.40;;;21.90;99.90;;;;;;5013515;28;20294;-74
2022/08/13 07:14:20;;;;;;;18.23;10.03;;;22.00;99.90;;;;;;5012286;28;20238;-73
2022/08/13 07:16:47;;;;;;;14.63;9.37;;;22.00;99.90;;;;;;5013506;28;20254;-77
2022/08/13 07:19:14;;;;;;;14.20;9.63;;;22.10;99.90;;;;;;5010239;28;20265;-72
2022/08/13 07:21:42;;;;;;;15.20;10.37;;;22.20;99.90;;;;;;5002835;28;20726;-74
2022/08/13 07:24:10;;;;;;;16.80;9.93;;;22.20;99.90;;;;;;5013173;28;20231;-75
2022/08/13 07:26:37;;;;;;;15.40;9.67;;;22.30;99.90;;;;;;5012493;28;20743;-73
2022/08/13 07:29:07;;;;;;;18.40;10.17;;;22.40;99.90;;;;;;5014004;28;20265;-76
2022/08/13 07:31:39;;;;;;;13.63;9.70;;;22.50;99.90;;;;;;5012882;28;20209;-73
2022/08/13 07:34:07;;;;;;;17.37;10.40;;;22.60;99.90;;;;;;5013308;28;20282;-74
2022/08/13 07:36:37;;;;;;;14.87;10.13;;;22.60;99.90;;;;;;5009358;28;20239;-74
2022/08/13 07:39:07;;;;;;;15.70;10.20;;;22.60;99.90;;;;;;5013111;28;20250;-73
2022/08/13 07:41:40;;;;;;;19.40;10.67;;;22.60;99.90;;;;;;5009980;28;20249;-74
2022/08/13 07:44:12;;;;;;;16.57;10.27;;;22.60;99.90;;;;;;5012356;28;20214;-74
2022/08/13 07:46:42;;;;;;;17.77;10.53;;;22.60;99.90;;;;;;5011468;28;20285;-75
2022/08/13 07:49:11;;;;;;;15.73;9.93;;;22.70;99.90;;;;;;5013720;28;20657;-76
2022/08/13 07:51:41;;;;;;;18.50;10.40;;;22.70;99.90;;;;;;5011114;28;20253;-74
2022/08/13 07:54:08;;;;;;;15.90;9.83;;;22.70;99.90;;;;;;5011606;28;20214;-73
2022/08/13 07:56:35;;;;;;;16.23;10.57;;;22.60;99.90;;;;;;5012257;28;20207;-73
2022/08/13 07:59:06;;;;;;;17.57;10.67;;;22.60;99.90;;;;;;5010567;28;20571;-73
2022/08/13 08:01:44;;;;;;;19.33;10.53;;;22.40;99.90;;;;;;5010285;28;20258;-74
2022/08/13 08:04:14;;;;;;;16.90;10.97;;;22.30;99.90;;;;;;5011305;28;20740;-74
2022/08/13 08:06:41;;;;;;;19.80;11.63;;;22.00;99.90;;;;;;5012475;28;20613;-74
2022/08/13 08:09:10;;;;;;;16.23;10.80;;;21.70;99.90;;;;;;5013086;28;20213;-74
2022/08/13 08:14:24;;;;;;;17.40;10.30;;;21.40;99.90;;;;;;5012144;28;20206;-74
2022/08/13 08:16:52;;;;;;;15.80;10.80;;;21.20;99.90;;;;;;5012805;28;20202;-74
2022/08/13 08:19:20;;;;;;;18.17;10.93;;;21.10;99.90;;;;;;5012613;28;20684;-73
2022/08/13 08:21:48;;;;;;;18.00;11.70;;;21.00;99.90;;;;;;5012918;28;20301;-73
2022/08/13 08:24:17;;;;;;;19.10;11.17;;;21.00;99.90;;;;;;5012608;28;20225;-73
2022/08/13 08:26:47;;;;;;;18.97;11.17;;;21.00;99.90;;;;;;5012460;28;20202;-72
2022/08/13 08:29:14;;;;;;;18.70;12.10;;;21.00;99.90;;;;;;5012252;28;20281;-73
2022/08/13 08:31:42;;;;;;;20.97;13.03;;;21.00;99.90;;;;;;4996087;28;20298;-74
2022/08/13 08:34:11;;;;;;;17.93;13.87;;;20.90;99.90;;;;;;5012805;28;20221;-74
2022/08/13 08:36:40;;;;;;;23.43;14.07;;;20.90;99.90;;;;;;5012465;28;20301;-73
2022/08/13 08:44:57;;;;;;;19.73;14.47;;;20.80;99.90;;;;;;4974688;28;20274;-74
2022/08/13 08:47:29;;;;;;;25.53;15.60;;;20.80;99.90;;;;;;4974382;28;20215;-74
2022/08/13 08:49:59;;;;;;;23.47;15.70;;;20.70;99.90;;;;;;4975154;28;20308;-72
2022/08/13 08:53:19;;;;;;;23.63;15.57;;;20.70;99.90;;;;;;4974727;28;20620;-73
2022/08/13 08:55:16;;;;;;;28.57;15.80;;;20.70;99.90;;;;;;4974753;28;20219;-73
2022/08/13 08:57:45;;;;;;;23.07;15.07;;;20.70;99.90;;;;;;4974757;28;20798;-73
2022/08/13 09:00:15;;;;;;;22.47;15.23;;;20.70;99.90;;;;;;4964754;28;20209;-74
2022/08/13 09:02:44;;;;;;;19.43;14.80;;;20.80;99.90;;;;;;4955791;29;20208;-73
2022/08/13 09:05:15;;;;;;;22.27;14.87;;;20.90;99.90;;;;;;4955594;29;20337;-74
2022/08/13 09:07:45;;;;;;;21.63;15.03;;;20.90;99.90;;;;;;4951709;28;20737;-73
2022/08/13 09:10:13;;;;;;;23.97;14.40;;;21.00;99.90;;;;;;4945490;28;20255;-73
2022/08/13 09:12:42;;;;;;;23.00;14.83;;;21.00;99.90;;;;;;4964621;28;20230;-74
2022/08/13 09:15:11;;;;;;;20.83;14.73;;;21.00;99.90;;;;;;4968648;28;20297;-73
2022/08/13 09:17:38;;;;;;;22.03;14.73;;;21.00;99.90;;;;;;5020097;28;20210;-73
2022/08/13 09:20:10;;;;;;;21.73;13.73;;;21.10;99.90;;;;;;5014638;28;20301;-72
2022/08/13 09:22:40;;;;;;;24.37;14.17;;;21.10;99.90;;;;;;5026661;28;20717;-73
2022/08/13 09:25:08;;;;;;;21.33;13.37;;;21.20;99.90;;;;;;5016086;28;20214;-74
2022/08/13 09:27:36;;;;;;;27.70;18.23;;;21.20;99.90;;;;;;5015881;28;20293;-73
2022/08/13 09:30:05;;;;;;;24.50;14.60;;;21.30;99.90;;;;;;5015668;28;20204;-72
2022/08/13 09:32:33;;;;;;;22.63;13.13;;;21.30;99.90;;;;;;5019140;28;20264;-73
2022/08/13 09:35:00;;;;;;;20.87;13.77;;;21.30;99.90;;;;;;5035495;28;20206;-73
2022/08/13 09:37:29;;;;;;;23.77;14.43;;;21.40;99.90;;;;;;5035331;28;20767;-75
2022/08/13 09:40:04;;;;;;;19.10;13.93;;;21.40;99.90;;;;;;5025576;28;20224;-75
2022/08/13 09:42:36;;;;;;;20.83;13.77;;;21.50;99.90;;;;;;5031604;28;20225;-73
2022/08/13 09:45:03;;;;;;;23.43;14.57;;;21.50;99.90;;;;;;5004118;28;20274;-74
2022/08/13 09:47:31;;;;;;;19.47;13.90;;;21.60;99.90;;;;;;5023527;28;20264;-74
2022/08/13 09:49:58;;;;;;;23.87;14.30;;;21.60;99.90;;;;;;5017984;28;20208;-74
2022/08/13 09:52:25;;;;;;;22.13;14.13;;;21.70;99.90;;;;;;5015390;28;20211;-73
2022/08/13 09:54:52;;;;;;;22.47;14.10;;;21.80;99.90;;;;;;5015712;28;20226;-74
2022/08/13 09:57:20;;;;;;;20.30;14.20;;;21.80;99.90;;;;;;5015810;28;20213;-73
2022/08/13 09:59:47;;;;;;;21.17;14.57;;;21.80;99.90;;;;;;5016387;28;20219;-73
2022/08/13 10:02:14;;;;;;;21.37;14.43;;;21.90;99.90;;;;;;5015304;28;20214;-73
2022/08/13 10:04:42;;;;;;;17.33;13.07;;;21.90;99.90;;;;;;5015466;28;20286;-72
2022/08/13 10:07:11;;;;;;;21.70;14.63;;;22.00;99.90;;;;;;5024208;28;20206;-72
2022/08/13 10:09:39;;;;;;;19.87;15.37;;;22.10;99.90;;;;;;5036292;28;20210;-75
2022/08/13 10:12:09;;;;;;;24.03;15.60;;;22.10;99.90;;;;;;5034411;28;20209;-75
2022/08/13 10:14:37;;;;;;;20.60;14.83;;;22.20;99.90;;;;;;5033538;28;20685;-73
2022/08/13 10:17:06;;;;;;;22.80;15.07;;;22.30;99.90;;;;;;5007837;28;20294;-73
2022/08/13 10:19:33;;;;;;;19.23;14.13;;;22.30;99.90;;;;;;5013771;28;20255;-73
2022/08/13 10:22:00;;;;;;;23.13;15.03;;;22.40;99.90;;;;;;5015149;28;20723;-74
2022/08/13 10:24:27;;;;;;;22.27;15.47;;;22.50;99.90;;;;;;5013611;28;20232;-73
2022/08/13 10:26:54;;;;;;;20.17;14.40;;;22.60;99.90;;;;;;5015258;28;20299;-73
2022/08/13 10:29:21;;;;;;;18.70;13.60;;;22.70;99.90;;;;;;5013138;28;20277;-73
2022/08/13 10:31:49;;;;;;;18.37;14.37;;;22.70;99.90;;;;;;5017905;28;20302;-73
2022/08/13 10:34:22;;;;;;;18.60;13.00;;;22.90;99.90;;;;;;5013171;28;20239;-73
2022/08/13 10:36:49;;;;;;;19.27;13.67;;;23.00;99.90;;;;;;5023790;28;20250;-72
2022/08/13 10:39:16;;;;;;;19.03;13.00;;;23.10;99.90;;;;;;5011872;28;20269;-72
2022/08/13 10:41:44;;;;;;;18.17;12.90;;;23.20;99.90;;;;;;5028101;28;20216;-72
2022/08/13 10:44:13;;;;;;;18.57;13.70;;;23.30;99.90;;;;;;5032596;28;20209;-74
2022/08/13 10:46:41;;;;;;;21.83;15.47;;;23.50;99.90;;;;;;5024301;28;20296;-72
2022/08/13 10:49:10;;;;;;;17.83;13.07;;;23.60;99.90;;;;;;5034495;28;20238;-72
2022/08/13 10:51:37;;;;;;;20.77;13.20;;;23.70;99.90;;;;;;5022191;28;20294;-73
2022/08/13 10:54:04;;;;;;;18.67;12.37;;;23.80;99.90;;;;;;5014617;28;20213;-75
2022/08/13 10:56:32;;;;;;;18.97;13.40;;;23.90;99.90;;;;;;5014468;28;20206;-72
2022/08/13 10:59:01;;;;;;;24.57;13.93;;;24.00;99.90;;;;;;5013273;28;20226;-73
2022/08/13 11:01:29;;;;;;;18.63;13.17;;;24.10;99.90;;;;;;5013568;28;20582;-73
2022/08/13 11:03:58;;;;;;;18.98;12.43;;;24.30;99.90;;;;;;5014728;28;20206;-76
2022/08/13 11:06:27;;;;;;;14.75;11.20;;;24.40;99.90;;;;;;5014267;28;20665;-73
2022/08/13 11:08:56;;;;;;;18.67;11.15;;;24.50;99.90;;;;;;5014125;28;20220;-75
2022/08/13 11:11:23;;;;;;;15.47;10.67;;;24.60;99.90;;;;;;5014038;28;20218;-75
2022/08/13 11:13:50;;;;;;;13.10;10.30;;;24.70;99.90;;;;;;5014061;28;20206;-73
2022/08/13 11:19:14;;;;;;;18.10;11.23;;;24.90;99.90;;;;;;5014148;28;20198;-76
2022/08/13 11:21:44;;;;;;;19.48;10.90;;;25.10;99.90;;;;;;5014182;28;20661;-74
2022/08/13 11:24:11;;;;;;;15.93;11.23;;;25.20;99.90;;;;;;5013620;28;20442;-72
2022/08/13 11:26:39;;;;;;;19.23;11.38;;;25.30;99.90;;;;;;5014141;28;20410;-75
2022/08/13 11:29:06;;;;;;;17.63;11.10;;;25.40;99.90;;;;;;5014070;28;20652;-74
2022/08/13 11:31:33;;;;;;;13.48;10.73;;;25.50;99.90;;;;;;5013557;28;20221;-73
2022/08/13 11:34:00;;;;;;;19.98;11.88;;;25.70;99.90;;;;;;5013161;28;20259;-74
2022/08/13 11:36:27;;;;;;;16.90;10.30;;;25.70;99.90;;;;;;5013453;28;20740;-74
2022/08/13 11:38:55;;;;;;;20.42;11.93;;;25.80;99.90;;;;;;5013070;28;20297;-73
2022/08/13 11:41:23;;;;;;;15.38;10.10;;;25.90;99.90;;;;;;5013432;28;20304;-73
2022/08/13 11:43:51;;;;;;;16.23;10.70;;;25.90;99.90;;;;;;5013223;28;20300;-74
2022/08/13 11:46:18;;;;;;;15.00;10.40;;;26.00;99.90;;;;;;5013318;28;20229;-75
2022/08/13 11:48:46;;;;;;;14.73;9.68;;;26.00;99.90;;;;;;5014134;28;20248;-76
2022/08/13 11:51:13;;;;;;;14.25;9.63;;;26.10;99.90;;;;;;5013596;28;20666;-73
2022/08/13 11:53:40;;;;;;;14.15;10.40;;;26.20;99.90;;;;;;5013618;28;20248;-73
2022/08/13 11:56:08;;;;;;;16.65;10.48;;;26.20;99.90;;;;;;5013117;28;20306;-74
2022/08/13 11:58:35;;;;;;;16.75;10.15;;;26.30;99.90;;;;;;5013327;28;20289;-73
2022/08/13 12:01:06;;;;;;;14.60;9.80;;;26.50;99.90;;;;;;5013296;28;20209;-74
2022/08/13 12:03:34;;;;;;;15.77;9.98;;;26.50;99.90;;;;;;5013476;28;20233;-75
2022/08/13 12:06:01;;;;;;;16.60;10.07;;;26.60;99.90;;;;;;5012909;28;20313;-73
2022/08/13 12:08:29;;;;;;;12.48;9.60;;;26.60;99.90;;;;;;5013269;28;20239;-72
2022/08/13 12:10:56;;;;;;;13.52;9.88;;;26.70;99.90;;;;;;5012952;28;20207;-72
2022/08/13 12:13:24;;;;;;;14.70;10.35;;;26.70;99.90;;;;;;5012810;28;20294;-74
2022/08/13 12:15:51;;;;;;;18.13;10.57;;;26.70;99.90;;;;;;5012558;28;20295;-73
2022/08/13 12:18:19;;;;;;;13.15;9.68;;;26.60;99.90;;;;;;5013121;28;20208;-73
2022/08/13 12:20:46;;;;;;;17.92;10.27;;;26.60;99.90;;;;;;5013177;28;20674;-72
2022/08/13 12:23:13;;;;;;;13.63;9.75;;;26.70;99.90;;;;;;5012646;28;20215;-72
2022/08/13 12:25:40;;;;;;;13.90;9.63;;;26.80;99.90;;;;;;5012898;28;20254;-74
2022/08/13 12:28:09;;;;;;;13.38;9.85;;;26.80;99.90;;;;;;5012686;28;20241;-73
2022/08/13 12:30:38;;;;;;;16.63;9.90;;;26.80;99.90;;;;;;5013051;28;20524;-72
2022/08/13 12:33:05;;;;;;;13.50;9.88;;;26.90;99.90;;;;;;5012542;28;20295;-73
2022/08/13 12:35:32;;;;;;;13.45;9.73;;;26.90;99.90;;;;;;5012140;28;20208;-73
2022/08/13 12:37:59;;;;;;;16.50;10.05;;;27.00;99.90;;;;;;5012202;28;20451;-74
2022/08/13 12:40:26;;;;;;;15.10;9.88;;;27.00;99.90;;;;;;5012824;28;20238;-74
2022/08/13 12:42:53;;;;;;;15.27;10.25;;;26.90;99.90;;;;;;5012421;28;20222;-74
2022/08/13 12:45:20;;;;;;;15.13;9.60;;;26.80;99.90;;;;;;5012035;28;20238;-73
2022/08/13 12:47:48;;;;;;;15.10;9.50;;;26.80;99.90;;;;;;5012444;28;20299;-74
2022/08/13 12:50:15;;;;;;;15.60;10.00;;;26.80;99.90;;;;;;5012448;28;20208;-73
2022/08/13 12:52:42;;;;;;;15.48;9.45;;;26.70;99.90;;;;;;5011981;28;20211;-73
2022/08/13 12:55:10;;;;;;;19.55;9.57;;;26.70;99.90;;;;;;5012040;28;20303;-73
2022/08/13 12:57:39;;;;;;;13.32;10.10;;;26.60;99.90;;;;;;5012555;28;20232;-75
2022/08/13 13:00:09;;;;;;;16.75;10.05;;;26.60;99.90;;;;;;5012472;28;20214;-73
2022/08/13 13:02:38;;;;;;;14.18;9.75;;;26.70;99.90;;;;;;5012710;28;20643;-73
2022/08/13 13:05:07;;;;;;;14.27;9.93;;;26.70;99.90;;;;;;5012392;28;20232;-73